Flight Track Log - Related Links

Times and Time Zones

All times are in EDT time to prevent confusion due to time zone crossing. See the AAL2315 flight status page for this flight to view local times or setup timezone preferences in your user account.

Time Position Orientation Groundspeed Altitude Reporting Facility
EDT Latitude Longitude Course Direction KTS MPH feet Rate Location/Type
Fri 11:39:41 AM 41.9167 -87.9167 194° South 188 216 2,300  Level Chicago TRACON
Fri 11:40:26 AM 41.8667 -87.9053 170° South 228 262 3,600 2,467 Climbing Chicago Center
Fri 11:41:00 AM 41.6623 -88.0475 199° South  Level FlightAware Approximate
Fri 11:41:28 AM 41.7889 -87.8989 176° South 277 319 6,700  Level Chicago Center
Fri 11:42:00 AM 41.5597 -88.0938 198° South  Level FlightAware Approximate
Fri 11:42:30 AM 41.7031 -87.8867 174° South 289 333 9,600  Level Chicago Center
Fri 11:43:00 AM 41.4570 -88.1395 198° South  Level FlightAware Approximate
Fri 11:43:32 AM 41.6189 -87.8761 175° South 306 352 12,200  Level Chicago Center
Fri 11:44:00 AM 41.3550 -88.1856 207° Southwest  Level FlightAware Approximate
Fri 11:44:34 AM 41.5333 -87.9075 195° South 313 360 14,500  Level Chicago Center
Fri 11:45:00 AM 41.2521 -88.2438 194° South  Level FlightAware Approximate
Fri 11:45:37 AM 41.4508 -87.9667 208° Southwest 335 386 16,100  Level Chicago Center
Fri 11:46:39 AM 41.3472 -88.0283 204° Southwest 385 443 17,900 1,742 Climbing Chicago Center
Fri 11:47:41 AM 41.2528 -88.0883 206° Southwest 392 451 19,700 1,548 Climbing Chicago Center
Fri 11:48:43 AM 41.1508 -88.1531 206° Southwest 399 459 21,100 1,500 Climbing Chicago Center
Fri 11:49:45 AM 41.0431 -88.2239 206° Southwest 426 490 22,800 1,548 Climbing Chicago Center
Fri 11:50:47 AM 40.9572 -88.3367 225° Southwest 433 498 24,300 1,935 Climbing Chicago Center
Fri 11:51:49 AM 40.8483 -88.4592 220° Southwest 430 495 26,800 1,548 Climbing Chicago Center
Fri 11:52:51 AM 40.7575 -88.5600 220° Southwest 425 489 27,500 823 Climbing Chicago Center
Fri 11:53:53 AM 40.6636 -88.6614 219° Southwest 432 497 28,500 1,016 Climbing Chicago Center
Fri 11:54:55 AM 40.5708 -88.7642 220° Southwest 435 501 29,600 919 Climbing Chicago Center
Fri 11:55:57 AM 40.4850 -88.8700 223° Southwest 436 502 30,400 919 Climbing Chicago Center
Fri 11:56:59 AM 40.3792 -89.0025 224° Southwest 436 502 31,500 823 Climbing Chicago Center
Fri 11:58:01 AM 40.2906 -89.1122 223° Southwest 436 502 32,100 629 Climbing Chicago Center
Fri 11:59:03 AM 40.2006 -89.2236 223° Southwest 437 503 32,800 581 Climbing Chicago Center
Fri 12:00:05 PM 40.1125 -89.3347 224° Southwest 442 509 33,300 404 Climbing Chicago Center
Fri 12:00:47 PM 40.0614 -89.3983 224° Southwest 435 501 33,500 288 Climbing Kansas City Center
Fri 12:01:49 PM 39.9533 -89.5308 223° Southwest 438 504 33,800 242 Climbing Kansas City Center
Fri 12:02:51 PM 39.8531 -89.6314 218° Southwest 449 517 34,000 97 Climbing Kansas City Center
Fri 12:03:53 PM 39.7567 -89.7322 219° Southwest 448 516 34,000  Level Kansas City Center
Fri 12:04:55 PM 39.6539 -89.8400 219° Southwest 448 516 34,000  Level Kansas City Center
Fri 12:05:58 PM 39.5567 -89.9414 219° Southwest 448 516 34,000  Level Kansas City Center
Fri 12:07:00 PM 39.4592 -90.0431 219° Southwest 449 517 34,000  Level Kansas City Center
Fri 12:08:02 PM 39.3611 -90.1456 219° Southwest 451 519 34,000  Level Kansas City Center
Fri 12:09:04 PM 39.2625 -90.2481 219° Southwest 454 522 34,000  Level Kansas City Center
Fri 12:10:06 PM 39.1453 -90.3689 219° Southwest 454 522 34,000  Level Kansas City Center
Fri 12:11:08 PM 39.0458 -90.4719 219° Southwest 457 526 34,000  Level Kansas City Center
Fri 12:12:10 PM 38.9353 -90.5842 218° Southwest 459 528 34,000  Level Kansas City Center
Fri 12:13:12 PM 38.8369 -90.6814 218° Southwest 460 529 34,000  Level Kansas City Center
Fri 12:14:15 PM 38.7267 -90.7942 219° Southwest 462 532 34,000  Level Kansas City Center
Fri 12:15:17 PM 38.6267 -90.8936 218° Southwest 462 532 34,000  Level Kansas City Center
Fri 12:16:19 PM 38.5267 -90.9928 218° Southwest 460 529 34,000  Level Kansas City Center
Fri 12:17:21 PM 38.4261 -91.0925 218° Southwest 460 529 34,000  Level Kansas City Center
Fri 12:18:23 PM 38.3264 -91.1911 218° Southwest 458 527 34,000  Level Kansas City Center
Fri 12:19:25 PM 38.2056 -91.3103 218° Southwest 458 527 34,000  Level Kansas City Center
Fri 12:20:27 PM 38.1089 -91.4047 218° Southwest 457 526 34,000  Level Kansas City Center
Fri 12:21:29 PM 38.0100 -91.5019 218° Southwest 451 519 34,000  Level Kansas City Center
Fri 12:22:32 PM 37.9114 -91.6003 218° Southwest 450 518 34,000  Level Kansas City Center
Fri 12:23:34 PM 37.8139 -91.6964 218° Southwest 445 512 34,000  Level Kansas City Center
Fri 12:24:36 PM 37.6947 -91.8122 218° Southwest 445 512 34,000  Level Kansas City Center
Fri 12:25:38 PM 37.5944 -91.9092 217° Southwest 445 512 34,000  Level Kansas City Center
Fri 12:26:40 PM 37.4936 -92.0083 218° Southwest 449 517 34,000  Level Kansas City Center
Fri 12:27:42 PM 37.4006 -92.1128 222° Southwest 449 517 34,000  Level Kansas City Center
Fri 12:28:44 PM 37.3058 -92.2186 222° Southwest 449 517 34,000  Level Kansas City Center
Fri 12:29:46 PM 37.2122 -92.3236 222° Southwest 449 517 34,000  Level Kansas City Center
Fri 12:30:49 PM 37.1169 -92.4281 221° Southwest 450 518 34,000  Level Kansas City Center
Fri 12:31:51 PM 37.0233 -92.5314 221° Southwest 447 514 34,000  Level Kansas City Center
Fri 12:32:53 PM 36.9092 -92.6542 221° Southwest 447 514 34,000  Level Kansas City Center
Fri 12:33:55 PM 36.8153 -92.7583 222° Southwest 448 516 34,000  Level Kansas City Center
Fri 12:34:57 PM 36.7189 -92.8639 221° Southwest 450 518 34,000  Level Kansas City Center
Fri 12:35:59 PM 36.6197 -92.9722 221° Southwest 462 532 34,000  Level Kansas City Center
Fri 12:37:01 PM 36.5172 -93.0778 220° Southwest 479 551 34,000  Level Kansas City Center
Fri 12:38:03 PM 36.4178 -93.1858 221° Southwest 479 551 34,000  Level Kansas City Center
Fri 12:39:06 PM 36.2992 -93.3092 220° Southwest 474 545 34,000  Level Kansas City Center
Fri 12:40:21 PM 36.1794 -93.4411 222° Southwest 472 543 34,000  Level Memphis Center
Fri 12:41:23 PM 36.0789 -93.5464 220° Southwest 473 544 34,000  Level Memphis Center
Fri 12:42:25 PM 35.9794 -93.6531 221° Southwest 473 544 34,000  Level Memphis Center
Fri 12:43:27 PM 35.8794 -93.7581 220° Southwest 474 545 34,000  Level Memphis Center
Fri 12:44:29 PM 35.7581 -93.8853 220° Southwest 474 545 34,000  Level Memphis Center
Fri 12:45:31 PM 35.6589 -93.9903 221° Southwest 474 545 34,000  Level Memphis Center
Fri 12:46:33 PM 35.5594 -94.0939 220° Southwest 474 545 34,000  Level Memphis Center
Fri 12:47:36 PM 35.4586 -94.1975 220° Southwest 474 545 34,000  Level Memphis Center
Fri 12:48:38 PM 35.3469 -94.3158 221° Southwest 474 545 34,000  Level Memphis Center
Fri 12:49:40 PM 35.2422 -94.4297 222° Southwest 474 545 34,000  Level Memphis Center
Fri 12:50:42 PM 35.1444 -94.5364 222° Southwest 473 544 34,000  Level Memphis Center
Fri 12:51:44 PM 35.0472 -94.6422 222° Southwest 473 544 34,000  Level Memphis Center
Fri 12:52:46 PM 34.9522 -94.7436 221° Southwest 473 544 34,000  Level Memphis Center
Fri 12:53:28 PM 34.8678 -94.8344 221° Southwest 476 548 34,000  Level Fort Worth Center
Fri 12:54:30 PM 34.7706 -94.9403 222° Southwest 474 545 34,000 -145 Level Fort Worth Center
Fri 12:55:32 PM 34.6692 -95.0453 220° Southwest 477 549 33,700 -484 Descending Fort Worth Center
Fri 12:56:34 PM 34.5686 -95.1475 220° Southwest 477 549 33,000 -672 Descending Fort Worth Center
Fri 12:57:37 PM 34.4689 -95.2497 220° Southwest 474 545 32,300 -672 Descending Fort Worth Center
Fri 12:58:39 PM 34.3661 -95.3528 220° Southwest 477 549 31,600 -726 Descending Fort Worth Center
Fri 12:59:41 PM 34.2458 -95.4747 220° Southwest 476 548 30,800 -726 Descending Fort Worth Center
Fri 01:00:43 PM 34.1442 -95.5772 220° Southwest 474 545 30,100 -1,597 Descending Fort Worth Center
Fri 01:01:45 PM 34.0353 -95.6861 220° Southwest 473 544 27,500 -2,516 Descending Fort Worth Center
Fri 01:02:47 PM 33.9358 -95.7869 220° Southwest 471 542 24,900 -2,448 Descending Fort Worth Center
Fri 01:03:50 PM 33.8383 -95.8825 219° Southwest 458 527 22,400 -2,400 Descending Fort Worth Center
Fri 01:04:52 PM 33.7406 -95.9781 219° Southwest 402 463 19,900 -2,274 Descending Fort Worth Center
Fri 01:05:54 PM 33.6567 -96.0611 220° Southwest 367 422 17,700 -1,935 Descending Fort Worth Center
Fri 01:06:56 PM 33.5811 -96.1361 220° Southwest 355 409 15,900 -1,839 Descending Fort Worth Center
Fri 01:07:58 PM 33.5031 -96.2117 219° Southwest 334 384 13,900 -2,032 Descending Fort Worth Center
Fri 01:09:00 PM 33.4331 -96.2797 219° Southwest 325 374 11,700 -1,392 Descending Fort Worth Center
Fri 01:10:03 PM 33.3764 -96.3553 228° Southwest 302 348 11,000 -528 Descending Fort Worth Center
Fri 01:11:05 PM 33.3347 -96.4458 241° Southwest 290 334 10,600 -677 Descending Fort Worth Center
Fri 01:12:07 PM 33.3064 -96.5353 249° West 288 331 9,600 -919 Descending Fort Worth Center
Fri 01:13:09 PM 33.2761 -96.6283 249° West 284 327 8,700 -823 Descending Fort Worth Center
Fri 01:14:11 PM 33.2475 -96.7147 248° West 283 326 7,900 -816 Descending Fort Worth Center
Fri 01:15:14 PM 33.2172 -96.8072 249° West 282 325 7,000 -857 Descending Fort Worth Center
Fri 01:16:17 PM 33.1906 -96.8939 250° West 275 316 6,100 -871 Descending Fort Worth Center
Fri 01:17:18 PM 33.1644 -96.9606 245° Southwest 225 259 5,200 -1,073 Descending Fort Worth Center
Fri 01:18:20 PM 33.1089 -96.9950 207° Southwest 213 245 3,900 -1,065 Descending Fort Worth Center
Fri 01:19:22 PM 33.0556 -97.0200 201° Southwest 208 239 3,000 -919 Descending Fort Worth Center
Fri 01:20:24 PM 32.9933 -97.0258 184° South 207 238 2,000 -912 Descending Fort Worth Center
Fri 01:21:27 PM 32.9458 -97.0258 180° South 169 194 1,100 -672 Descending Fort Worth Center
Fri 01:22:29 PM 32.9081 -97.0272 182° South 137 158 600 -484 Descending Fort Worth Center

Login

Don't have an account? Register now (free) for customized features, flight alerts, and more!